Time;durP1;ratioP1;P1;durP2;ratioP2;P2;SDS_P1;SDS_P2;PMS_P1;PMS_P2;Temp;Humidity;BMP_temperature;BMP_pressure;BME280_temperature;BME280_humidity;BME280_pressure;Samples;Min_cycle;Max_cycle;Signal;HPM_P1;HPM_P2
2022/12/29 00:01:20;;;;;;;1.57;1.40;;;;;;;;;;5085409;28;20321;-56
2022/12/29 00:03:47;;;;;;;1.67;1.57;;;;;;;;;;5085572;28;20235;-55
2022/12/29 00:06:15;;;;;;;1.70;1.60;;;;;;;;;;5086090;28;20234;-55
2022/12/29 00:08:41;;;;;;;1.50;1.40;;;;;;;;;;5085575;28;20227;-55
2022/12/29 00:11:09;;;;;;;2.20;1.70;;;;;;;;;;5088859;28;20239;-55
2022/12/29 00:16:19;;;;;;;4.07;1.47;;;;;;;;;;5068704;28;20795;-56
2022/12/29 00:18:46;;;;;;;1.50;1.40;;;;;;;;;;5064075;28;20282;-55
2022/12/29 00:35:09;;;;;;;3.83;2.20;;;;;;;;;;5073506;28;20392;-53
2022/12/29 00:45:50;;;;;;;4.77;1.73;;;;;;;;;;5064298;28;20272;-54
2022/12/29 00:49:29;;;;;;;2.77;1.80;;;;;;;;;;5079010;28;20242;-54
2022/12/29 00:51:03;;;;;;;4.40;1.60;;;;;;;;;;5068540;28;20234;-54
2022/12/29 00:53:31;;;;;;;2.43;2.07;;;;;;;;;;5085250;28;20575;-55
2022/12/29 00:55:57;;;;;;;2.17;1.73;;;;;;;;;;5085309;28;20233;-54
2022/12/29 00:58:24;;;;;;;3.43;1.50;;;;;;;;;;5067776;28;22813;-55
2022/12/29 01:00:51;;;;;;;3.53;1.50;;;;;;;;;;5064472;28;20281;-54
2022/12/29 01:03:17;;;;;;;1.43;1.30;;;;;;;;;;5063861;28;20400;-55
2022/12/29 01:05:44;;;;;;;2.57;1.70;;;;;;;;;;5064675;28;20310;-54
2022/12/29 01:08:10;;;;;;;1.80;1.70;;;;;;;;;;5063714;28;20282;-54
2022/12/29 01:10:37;;;;;;;2.10;2.00;;;;;;;;;;5065384;28;20229;-55
2022/12/29 01:13:04;;;;;;;2.50;1.67;;;;;;;;;;5072375;28;20234;-57
2022/12/29 01:15:31;;;;;;;1.97;1.50;;;;;;;;;;5077222;28;20626;-54
2022/12/29 01:17:57;;;;;;;1.73;1.63;;;;;;;;;;5063613;28;20347;-55
2022/12/29 01:20:24;;;;;;;2.30;1.60;;;;;;;;;;5065048;28;20767;-55
2022/12/29 01:22:50;;;;;;;1.60;1.50;;;;;;;;;;5063950;28;20239;-54
2022/12/29 01:25:17;;;;;;;5.00;1.90;;;;;;;;;;5065349;28;20239;-55
2022/12/29 01:27:45;;;;;;;1.60;1.50;;;;;;;;;;5075350;28;20275;-55
2022/12/29 01:30:12;;;;;;;2.90;2.17;;;;;;;;;;5069883;28;20243;-55
2022/12/29 01:32:39;;;;;;;2.93;1.53;;;;;;;;;;5064055;28;20240;-55
2022/12/29 01:35:06;;;;;;;3.63;1.80;;;;;;;;;;5064184;28;20237;-55
2022/12/29 01:37:32;;;;;;;1.87;1.67;;;;;;;;;;5069557;28;20230;-55
2022/12/29 01:39:59;;;;;;;2.10;1.87;;;;;;;;;;5063392;28;20285;-54
2022/12/29 01:42:26;;;;;;;1.67;1.50;;;;;;;;;;5078316;28;20242;-54
2022/12/29 01:44:56;;;;;;;1.83;1.70;;;;;;;;;;5076112;28;20227;-54
2022/12/29 01:47:31;;;;;;;2.03;1.83;;;;;;;;;;5083722;28;20242;-54
2022/12/29 01:50:00;;;;;;;5.03;1.73;;;;;;;;;;5084453;28;20391;-54
2022/12/29 01:52:28;;;;;;;3.20;1.60;;;;;;;;;;5075724;28;20274;-54
2022/12/29 01:54:56;;;;;;;2.23;1.60;;;;;;;;;;5088158;28;20250;-55
2022/12/29 01:57:26;;;;;;;2.13;1.73;;;;;;;;;;5080075;28;20239;-54
2022/12/29 01:59:54;;;;;;;1.83;1.40;;;;;;;;;;5068669;28;20227;-54
2022/12/29 02:02:22;;;;;;;2.17;1.93;;;;;;;;;;5069332;28;20247;-55
2022/12/29 02:04:48;;;;;;;2.93;2.07;;;;;;;;;;5070134;28;20570;-56
2022/12/29 02:07:18;;;;;;;1.80;1.70;;;;;;;;;;5073322;28;20876;-54
2022/12/29 02:09:44;;;;;;;2.37;2.17;;;;;;;;;;5078074;28;20231;-56
2022/12/29 02:12:11;;;;;;;1.70;1.60;;;;;;;;;;5076699;28;20262;-54
2022/12/29 02:14:37;;;;;;;1.57;1.47;;;;;;;;;;5076941;28;20258;-60
2022/12/29 02:17:11;;;;;;;1.97;1.87;;;;;;;;;;5071796;28;20235;-55
2022/12/29 02:19:58;;;;;;;2.90;2.03;;;;;;;;;;5066812;28;20227;-54
2022/12/29 02:22:28;;;;;;;2.37;2.17;;;;;;;;;;5067013;28;20245;-54
2022/12/29 02:25:11;;;;;;;1.80;1.70;;;;;;;;;;5076975;28;20341;-54
2022/12/29 02:27:59;;;;;;;3.03;1.90;;;;;;;;;;5073950;28;20820;-55
2022/12/29 02:30:43;;;;;;;3.30;1.70;;;;;;;;;;5063660;28;20231;-55
2022/12/29 02:33:15;;;;;;;2.27;1.43;;;;;;;;;;5084336;28;20315;-54
2022/12/29 02:35:46;;;;;;;6.50;2.00;;;;;;;;;;5087716;28;20257;-55
2022/12/29 02:38:17;;;;;;;1.80;1.70;;;;;;;;;;5065985;28;20239;-54
2022/12/29 02:40:47;;;;;;;4.20;1.90;;;;;;;;;;5075541;28;20864;-54
2022/12/29 02:43:20;;;;;;;2.53;1.63;;;;;;;;;;5067321;28;20334;-54
2022/12/29 02:45:52;;;;;;;3.23;2.00;;;;;;;;;;5067454;28;20231;-54
2022/12/29 02:48:23;;;;;;;1.23;1.13;;;;;;;;;;5065849;28;20235;-55
2022/12/29 02:50:53;;;;;;;2.23;2.03;;;;;;;;;;5067819;28;20250;-55
2022/12/29 02:54:40;;;;;;;2.97;1.83;;;;;;;;;;5087339;28;20262;-55
2022/12/29 02:56:06;;;;;;;1.87;1.60;;;;;;;;;;5087660;28;20235;-54
2022/12/29 02:58:33;;;;;;;2.17;1.60;;;;;;;;;;5072223;28;20291;-56
2022/12/29 03:01:07;;;;;;;3.17;1.60;;;;;;;;;;5069677;28;20235;-55
2022/12/29 03:03:42;;;;;;;1.97;1.40;;;;;;;;;;5068845;28;20317;-55
2022/12/29 03:06:17;;;;;;;1.33;1.23;;;;;;;;;;5069492;28;20262;-54
2022/12/29 03:08:48;;;;;;;1.70;1.47;;;;;;;;;;5067740;28;20511;-54
2022/12/29 03:16:44;;;;;;;1.80;1.67;;;;;;;;;;5066925;28;20238;-54
2022/12/29 03:19:17;;;;;;;2.20;1.83;;;;;;;;;;5068442;28;20235;-55
2022/12/29 03:24:37;;;;;;;3.80;1.57;;;;;;;;;;5070825;28;20223;-54
2022/12/29 03:27:06;;;;;;;2.10;1.50;;;;;;;;;;5069219;28;20625;-54
2022/12/29 03:29:34;;;;;;;1.57;1.47;;;;;;;;;;5066837;28;20230;-54
2022/12/29 03:32:01;;;;;;;1.43;1.33;;;;;;;;;;5065991;28;20238;-54
2022/12/29 03:34:30;;;;;;;2.80;1.70;;;;;;;;;;5066011;28;20254;-55
2022/12/29 03:36:59;;;;;;;1.83;1.60;;;;;;;;;;5070429;28;20230;-55
2022/12/29 03:39:26;;;;;;;1.53;1.43;;;;;;;;;;5086424;28;20242;-54
2022/12/29 03:41:55;;;;;;;2.37;1.20;;;;;;;;;;5074977;28;20227;-54
2022/12/29 03:44:22;;;;;;;2.83;1.47;;;;;;;;;;5065315;28;20231;-54
2022/12/29 03:46:48;;;;;;;1.47;1.30;;;;;;;;;;5064648;28;20322;-53
2022/12/29 03:49:15;;;;;;;1.50;1.40;;;;;;;;;;5064544;28;20314;-53
2022/12/29 03:51:43;;;;;;;2.73;1.37;;;;;;;;;;5063311;28;20235;-55
2022/12/29 03:54:09;;;;;;;3.37;1.30;;;;;;;;;;5084865;28;20235;-54
2022/12/29 03:56:36;;;;;;;1.83;1.33;;;;;;;;;;5084425;28;20235;-54
2022/12/29 03:59:03;;;;;;;2.60;1.13;;;;;;;;;;5065997;28;20239;-53
2022/12/29 04:01:29;;;;;;;5.10;1.73;;;;;;;;;;5070667;28;20227;-54
2022/12/29 04:03:56;;;;;;;2.33;1.30;;;;;;;;;;5065383;28;20254;-54
2022/12/29 04:06:23;;;;;;;2.37;1.47;;;;;;;;;;5064318;28;20234;-54
2022/12/29 04:08:51;;;;;;;1.50;1.40;;;;;;;;;;5066285;28;20231;-53
2022/12/29 04:11:17;;;;;;;1.77;1.40;;;;;;;;;;5068852;28;20249;-54
2022/12/29 04:13:44;;;;;;;2.67;1.67;;;;;;;;;;5071640;28;20242;-54
2022/12/29 04:16:10;;;;;;;3.97;1.53;;;;;;;;;;5083100;28;20235;-54
2022/12/29 04:18:37;;;;;;;1.43;1.30;;;;;;;;;;5093358;28;20284;-56
2022/12/29 04:21:04;;;;;;;2.53;1.50;;;;;;;;;;5077829;28;20246;-61
2022/12/29 04:23:31;;;;;;;1.60;1.47;;;;;;;;;;5077914;28;20299;-55
2022/12/29 04:25:59;;;;;;;1.83;1.43;;;;;;;;;;5080192;28;20312;-55
2022/12/29 04:28:26;;;;;;;2.07;1.40;;;;;;;;;;5070704;28;20246;-54
2022/12/29 04:30:53;;;;;;;2.40;1.40;;;;;;;;;;5073391;28;20287;-54
2022/12/29 04:33:20;;;;;;;3.00;1.43;;;;;;;;;;5093436;28;20265;-54
2022/12/29 04:35:46;;;;;;;2.07;1.87;;;;;;;;;;5078271;28;20241;-54
2022/12/29 04:38:13;;;;;;;3.97;1.60;;;;;;;;;;5104378;28;20231;-55
2022/12/29 04:40:40;;;;;;;1.40;1.30;;;;;;;;;;5096468;28;20254;-54
2022/12/29 04:43:08;;;;;;;1.80;1.43;;;;;;;;;;5066219;28;20289;-54
2022/12/29 04:45:35;;;;;;;2.70;1.37;;;;;;;;;;5065127;28;20227;-55
2022/12/29 04:48:02;;;;;;;3.67;1.60;;;;;;;;;;5063657;28;20239;-56
2022/12/29 04:50:28;;;;;;;3.83;1.57;;;;;;;;;;5065122;28;20231;-56
2022/12/29 04:52:55;;;;;;;3.60;1.47;;;;;;;;;;5083495;28;20226;-54
2022/12/29 04:55:22;;;;;;;1.40;1.10;;;;;;;;;;5084788;28;20231;-54
2022/12/29 04:57:49;;;;;;;1.43;1.20;;;;;;;;;;5080826;28;20318;-54
2022/12/29 05:00:17;;;;;;;2.83;1.33;;;;;;;;;;5064003;28;20232;-54
2022/12/29 05:02:44;;;;;;;4.27;1.40;;;;;;;;;;5063957;28;20304;-54
2022/12/29 05:05:10;;;;;;;1.40;1.30;;;;;;;;;;5064189;28;20239;-54
2022/12/29 05:07:37;;;;;;;1.60;1.23;;;;;;;;;;5064650;28;20227;-55
2022/12/29 05:10:04;;;;;;;2.00;1.13;;;;;;;;;;5062972;28;20603;-54
2022/12/29 05:12:31;;;;;;;1.60;1.50;;;;;;;;;;5063029;28;20729;-54
2022/12/29 05:14:58;;;;;;;1.63;1.53;;;;;;;;;;5075298;28;20911;-54
2022/12/29 05:17:26;;;;;;;1.97;1.80;;;;;;;;;;5067207;28;20234;-54
2022/12/29 05:19:53;;;;;;;1.57;1.47;;;;;;;;;;5063235;28;20227;-54
2022/12/29 05:22:20;;;;;;;1.70;1.40;;;;;;;;;;5063876;28;20259;-55
2022/12/29 05:24:46;;;;;;;1.63;1.50;;;;;;;;;;5063258;28;20239;-55
2022/12/29 05:27:13;;;;;;;1.50;1.40;;;;;;;;;;5066994;28;20401;-54
2022/12/29 05:29:40;;;;;;;2.10;1.47;;;;;;;;;;5083632;28;20234;-54
2022/12/29 05:32:06;;;;;;;1.97;1.80;;;;;;;;;;5066941;28;20239;-55
2022/12/29 05:34:34;;;;;;;1.40;1.30;;;;;;;;;;5068697;28;20853;-54
2022/12/29 05:37:02;;;;;;;1.90;1.60;;;;;;;;;;5078061;28;20330;-55
2022/12/29 05:39:28;;;;;;;1.97;1.57;;;;;;;;;;5088385;28;20248;-54
2022/12/29 05:41:55;;;;;;;1.80;1.60;;;;;;;;;;5077588;28;20235;-54
2022/12/29 05:44:21;;;;;;;1.80;1.37;;;;;;;;;;5067971;28;20269;-54
2022/12/29 05:46:48;;;;;;;3.37;1.67;;;;;;;;;;5067465;28;20307;-54
2022/12/29 05:49:15;;;;;;;2.27;1.53;;;;;;;;;;5067921;28;20238;-57
2022/12/29 05:51:43;;;;;;;3.13;1.47;;;;;;;;;;5068607;28;20235;-54
2022/12/29 05:54:09;;;;;;;3.10;1.50;;;;;;;;;;5079462;28;20246;-56
2022/12/29 05:56:36;;;;;;;1.97;1.47;;;;;;;;;;5069654;28;20281;-56
2022/12/29 05:59:02;;;;;;;2.00;1.27;;;;;;;;;;5067661;28;20239;-55
2022/12/29 06:01:29;;;;;;;1.60;1.50;;;;;;;;;;5065369;28;20262;-55
2022/12/29 06:03:55;;;;;;;1.60;1.50;;;;;;;;;;5066362;28;20241;-55
2022/12/29 06:06:22;;;;;;;2.17;1.47;;;;;;;;;;5067514;28;20243;-55
2022/12/29 06:08:50;;;;;;;1.63;1.40;;;;;;;;;;5073704;28;20325;-54
2022/12/29 06:11:16;;;;;;;1.97;1.03;;;;;;;;;;5081402;28;20234;-54
2022/12/29 06:13:43;;;;;;;2.27;1.67;;;;;;;;;;5068099;28;20259;-55
2022/12/29 06:16:10;;;;;;;2.47;1.50;;;;;;;;;;5067010;28;20249;-55
2022/12/29 06:18:36;;;;;;;2.13;1.90;;;;;;;;;;5066269;28;20650;-55
2022/12/29 06:21:03;;;;;;;2.43;1.63;;;;;;;;;;5067322;28;20227;-54
2022/12/29 06:23:30;;;;;;;1.63;1.53;;;;;;;;;;5083663;28;20250;-54
2022/12/29 06:25:58;;;;;;;1.40;1.30;;;;;;;;;;5069865;28;20223;-54
2022/12/29 06:28:24;;;;;;;1.90;1.43;;;;;;;;;;5066068;28;20322;-54
2022/12/29 06:30:51;;;;;;;1.53;1.20;;;;;;;;;;5067047;28;20235;-55
2022/12/29 06:33:18;;;;;;;2.97;1.40;;;;;;;;;;5065584;28;20253;-54
2022/12/29 06:35:45;;;;;;;2.23;1.30;;;;;;;;;;5064282;28;20922;-54
2022/12/29 06:38:12;;;;;;;2.00;1.47;;;;;;;;;;5065744;28;20235;-54
2022/12/29 06:40:39;;;;;;;1.70;1.00;;;;;;;;;;5065501;28;20833;-55
2022/12/29 06:43:07;;;;;;;1.20;1.10;;;;;;;;;;5088198;28;20320;-54
2022/12/29 06:45:33;;;;;;;1.60;1.50;;;;;;;;;;5085505;28;20226;-55
2022/12/29 06:48:00;;;;;;;1.23;1.13;;;;;;;;;;5087775;28;20237;-54
2022/12/29 06:50:26;;;;;;;2.70;1.37;;;;;;;;;;5088149;28;20250;-54
2022/12/29 06:52:53;;;;;;;1.73;1.40;;;;;;;;;;5082515;28;20227;-57
2022/12/29 06:55:21;;;;;;;1.43;1.33;;;;;;;;;;5074680;28;20262;-55
2022/12/29 06:57:47;;;;;;;3.47;1.20;;;;;;;;;;5072357;28;20235;-55
2022/12/29 07:00:16;;;;;;;1.40;1.30;;;;;;;;;;5070197;28;20320;-58
2022/12/29 07:02:43;;;;;;;1.67;1.40;;;;;;;;;;5074926;28;20281;-55
2022/12/29 07:05:10;;;;;;;1.43;1.20;;;;;;;;;;5075106;28;20223;-55
2022/12/29 07:07:36;;;;;;;1.33;1.20;;;;;;;;;;5081643;28;20227;-55
2022/12/29 07:10:04;;;;;;;1.67;1.50;;;;;;;;;;5066234;28;20309;-55
2022/12/29 07:12:31;;;;;;;1.00;1.00;;;;;;;;;;5065765;28;20322;-54
2022/12/29 07:14:57;;;;;;;1.10;1.00;;;;;;;;;;5067194;28;20223;-55
2022/12/29 07:17:25;;;;;;;1.40;1.30;;;;;;;;;;5056556;28;20239;-54
2022/12/29 07:19:52;;;;;;;1.50;1.17;;;;;;;;;;5068801;28;20230;-54
2022/12/29 07:22:18;;;;;;;1.50;1.40;;;;;;;;;;5077862;28;20241;-54
2022/12/29 07:24:45;;;;;;;1.63;1.53;;;;;;;;;;5085830;28;20249;-54
2022/12/29 07:27:11;;;;;;;1.40;1.27;;;;;;;;;;5067366;28;20276;-54
2022/12/29 07:29:38;;;;;;;1.33;1.23;;;;;;;;;;5066990;28;20325;-54
2022/12/29 07:32:05;;;;;;;1.40;1.20;;;;;;;;;;5066625;28;20241;-55
2022/12/29 07:34:32;;;;;;;1.37;1.20;;;;;;;;;;5066103;28;20731;-54
2022/12/29 07:36:59;;;;;;;2.43;1.37;;;;;;;;;;5075555;28;20746;-54
2022/12/29 07:39:25;;;;;;;2.50;1.10;;;;;;;;;;5086142;28;20322;-54
2022/12/29 07:41:52;;;;;;;1.83;1.63;;;;;;;;;;5075356;28;20334;-54
2022/12/29 07:44:19;;;;;;;1.47;1.17;;;;;;;;;;5066088;28;20231;-55
2022/12/29 07:46:45;;;;;;;1.83;1.63;;;;;;;;;;5068350;28;20231;-54
2022/12/29 07:49:11;;;;;;;1.57;1.10;;;;;;;;;;5075976;28;20677;-54
2022/12/29 07:51:39;;;;;;;2.43;1.60;;;;;;;;;;5068182;28;20235;-55
2022/12/29 07:54:06;;;;;;;0.80;0.80;;;;;;;;;;5065452;28;20242;-54
2022/12/29 07:56:33;;;;;;;3.87;1.30;;;;;;;;;;5065708;28;20238;-55
2022/12/29 07:58:59;;;;;;;2.60;1.50;;;;;;;;;;5064769;28;20239;-55
2022/12/29 08:01:26;;;;;;;2.30;1.50;;;;;;;;;;5073165;28;20262;-54
2022/12/29 08:03:52;;;;;;;1.03;1.03;;;;;;;;;;5082800;28;20241;-54
2022/12/29 08:06:19;;;;;;;1.47;1.30;;;;;;;;;;5065613;28;20300;-54
2022/12/29 08:08:47;;;;;;;1.73;1.13;;;;;;;;;;5064746;28;20235;-53
2022/12/29 08:11:14;;;;;;;1.47;1.37;;;;;;;;;;5065209;28;20235;-54
2022/12/29 08:13:40;;;;;;;2.10;1.30;;;;;;;;;;5065017;28;20822;-55
2022/12/29 08:16:07;;;;;;;1.50;1.33;;;;;;;;;;5066441;28;20223;-54
2022/12/29 08:18:33;;;;;;;2.60;1.23;;;;;;;;;;5081709;28;20237;-54
2022/12/29 08:21:02;;;;;;;3.67;1.97;;;;;;;;;;5070186;28;20238;-54
2022/12/29 08:23:28;;;;;;;1.57;1.10;;;;;;;;;;5085674;28;20233;-54
2022/12/29 08:25:59;;;;;;;1.70;1.60;;;;;;;;;;5081786;28;20235;-54
2022/12/29 08:28:26;;;;;;;1.97;1.33;;;;;;;;;;5065593;28;20235;-54
2022/12/29 08:30:53;;;;;;;1.30;1.20;;;;;;;;;;5068528;28;20235;-54
2022/12/29 08:33:20;;;;;;;1.43;1.33;;;;;;;;;;5077391;28;20708;-54
2022/12/29 08:35:46;;;;;;;1.10;1.03;;;;;;;;;;5076144;28;20231;-56
2022/12/29 08:38:13;;;;;;;1.30;1.10;;;;;;;;;;5093190;28;20667;-58
2022/12/29 08:40:39;;;;;;;1.80;1.43;;;;;;;;;;5093835;28;20245;-56
2022/12/29 08:43:07;;;;;;;1.27;1.17;;;;;;;;;;5075905;28;20265;-54
2022/12/29 08:45:34;;;;;;;1.40;1.30;;;;;;;;;;5084400;28;20262;-54
2022/12/29 08:48:01;;;;;;;2.23;1.37;;;;;;;;;;5084109;28;20284;-54
2022/12/29 08:50:27;;;;;;;1.57;1.33;;;;;;;;;;5083963;28;20235;-54
2022/12/29 08:52:54;;;;;;;1.97;1.37;;;;;;;;;;5073221;28;20235;-55
2022/12/29 08:55:20;;;;;;;1.47;1.30;;;;;;;;;;5065119;28;20593;-54
2022/12/29 08:57:47;;;;;;;2.07;1.20;;;;;;;;;;5075286;28;20234;-55
2022/12/29 09:00:15;;;;;;;1.10;1.10;;;;;;;;;;5080302;28;20238;-54
2022/12/29 09:02:42;;;;;;;1.40;1.17;;;;;;;;;;5064482;28;20267;-54
2022/12/29 09:05:09;;;;;;;1.40;1.20;;;;;;;;;;5065516;28;20285;-54
2022/12/29 09:07:36;;;;;;;2.53;1.57;;;;;;;;;;5063008;28;20703;-54
2022/12/29 09:10:03;;;;;;;1.97;1.30;;;;;;;;;;5064709;28;20231;-54
2022/12/29 09:12:30;;;;;;;1.83;1.50;;;;;;;;;;5071692;28;20238;-54
2022/12/29 09:14:56;;;;;;;2.30;1.67;;;;;;;;;;5074124;28;20235;-54
2022/12/29 09:17:43;;;;;;;1.60;1.00;;;;;;;;;;5063261;28;20239;-54
2022/12/29 09:20:10;;;;;;;1.37;1.20;;;;;;;;;;5064352;28;20227;-55
2022/12/29 09:22:37;;;;;;;1.27;1.20;;;;;;;;;;5082676;28;20239;-55
2022/12/29 09:25:03;;;;;;;1.53;1.23;;;;;;;;;;5084893;28;20314;-55
2022/12/29 09:27:30;;;;;;;1.83;1.27;;;;;;;;;;5063838;28;20284;-55
2022/12/29 09:29:57;;;;;;;4.17;1.40;;;;;;;;;;5064544;28;20231;-54
2022/12/29 09:32:25;;;;;;;1.43;1.33;;;;;;;;;;5064428;28;20737;-54
2022/12/29 09:34:51;;;;;;;3.17;1.30;;;;;;;;;;5063712;28;20242;-54
2022/12/29 09:37:18;;;;;;;1.83;1.40;;;;;;;;;;5076921;28;20226;-54
2022/12/29 09:39:44;;;;;;;1.23;1.13;;;;;;;;;;5070549;28;20234;-54
2022/12/29 09:42:15;;;;;;;3.07;1.20;;;;;;;;;;5077428;28;20409;-54
2022/12/29 09:44:52;;;;;;;3.13;1.00;;;;;;;;;;5065177;28;20227;-54
2022/12/29 09:47:20;;;;;;;3.93;1.23;;;;;;;;;;5077309;28;20287;-55
2022/12/29 09:49:49;;;;;;;2.03;1.53;;;;;;;;;;5065776;28;20699;-53
2022/12/29 09:52:19;;;;;;;1.27;1.17;;;;;;;;;;5068681;28;20325;-53
2022/12/29 09:54:49;;;;;;;2.07;1.30;;;;;;;;;;5073729;28;20242;-56
2022/12/29 09:57:18;;;;;;;0.90;0.90;;;;;;;;;;5069054;28;20227;-55
2022/12/29 09:59:46;;;;;;;3.60;1.30;;;;;;;;;;5082528;28;20291;-54
2022/12/29 10:02:28;;;;;;;1.33;1.10;;;;;;;;;;5082957;28;20231;-54
2022/12/29 10:04:56;;;;;;;1.93;1.20;;;;;;;;;;5072987;28;20310;-55
2022/12/29 10:07:27;;;;;;;1.70;1.60;;;;;;;;;;5063579;28;20859;-54
2022/12/29 10:09:57;;;;;;;1.30;1.13;;;;;;;;;;5075166;28;20672;-54
2022/12/29 10:12:27;;;;;;;2.43;1.30;;;;;;;;;;5079631;28;20242;-54
2022/12/29 10:14:59;;;;;;;1.50;1.37;;;;;;;;;;5082677;28;20231;-53
2022/12/29 10:17:28;;;;;;;4.23;1.43;;;;;;;;;;5067402;28;20238;-54
2022/12/29 10:20:04;;;;;;;2.23;1.03;;;;;;;;;;5068243;28;20314;-54
2022/12/29 10:22:37;;;;;;;1.00;1.00;;;;;;;;;;5084143;28;20230;-54
2022/12/29 10:25:11;;;;;;;2.07;1.40;;;;;;;;;;5087702;28;20226;-54
2022/12/29 10:27:38;;;;;;;2.33;1.50;;;;;;;;;;5066035;28;20719;-55
2022/12/29 10:30:05;;;;;;;2.47;1.20;;;;;;;;;;5066545;28;20227;-56
2022/12/29 10:32:35;;;;;;;1.00;1.00;;;;;;;;;;5067177;28;20239;-54
2022/12/29 10:35:06;;;;;;;2.73;1.13;;;;;;;;;;5073446;28;20239;-55
2022/12/29 10:37:35;;;;;;;2.63;1.00;;;;;;;;;;5072627;28;20289;-53
2022/12/29 10:40:04;;;;;;;1.07;1.00;;;;;;;;;;5079602;28;20577;-54
2022/12/29 10:42:36;;;;;;;3.20;0.90;;;;;;;;;;5085917;28;20643;-54
2022/12/29 10:45:03;;;;;;;2.00;1.80;;;;;;;;;;5074627;28;20262;-55
2022/12/29 10:47:32;;;;;;;1.33;1.17;;;;;;;;;;5066765;28;20243;-54
2022/12/29 10:50:00;;;;;;;0.82;0.82;;;;;;;;;;5083470;28;20261;-53
2022/12/29 10:52:28;;;;;;;0.80;0.80;;;;;;;;;;5082720;28;20238;-55
2022/12/29 10:54:56;;;;;;;3.33;1.27;;;;;;;;;;5085349;28;20241;-57
2022/12/29 10:57:27;;;;;;;1.73;1.33;;;;;;;;;;5074041;28;20566;-55
2022/12/29 10:59:54;;;;;;;0.93;0.87;;;;;;;;;;5086429;28;20697;-59
2022/12/29 11:02:38;;;;;;;1.67;0.90;;;;;;;;;;5069935;28;20231;-53
2022/12/29 11:05:08;;;;;;;1.30;1.20;;;;;;;;;;5085814;28;20230;-54
2022/12/29 11:07:37;;;;;;;1.42;1.20;;;;;;;;;;5077266;28;20230;-54
2022/12/29 11:10:19;;;;;;;2.00;1.20;;;;;;;;;;5086603;28;20261;-54
2022/12/29 11:12:55;;;;;;;1.50;1.40;;;;;;;;;;5086955;28;20230;-54
2022/12/29 11:15:22;;;;;;;1.17;1.10;;;;;;;;;;5078428;28;20292;-54
2022/12/29 11:17:49;;;;;;;1.27;1.17;;;;;;;;;;5066231;28;20308;-54
2022/12/29 11:20:29;;;;;;;2.40;1.33;;;;;;;;;;5067012;28;20266;-54
2022/12/29 11:22:57;;;;;;;2.40;1.40;;;;;;;;;;5066540;28;20238;-54
2022/12/29 11:25:24;;;;;;;2.77;1.53;;;;;;;;;;5068091;28;20234;-53
2022/12/29 11:28:01;;;;;;;1.60;1.33;;;;;;;;;;5085936;28;20236;-54
2022/12/29 11:30:28;;;;;;;1.50;1.02;;;;;;;;;;5085366;28;20274;-54
2022/12/29 11:32:56;;;;;;;1.00;0.90;;;;;;;;;;5086245;28;20641;-54
2022/12/29 11:35:32;;;;;;;2.27;1.20;;;;;;;;;;5070407;28;20235;-54
2022/12/29 11:38:01;;;;;;;2.37;1.20;;;;;;;;;;5072853;28;20239;-55
2022/12/29 11:40:28;;;;;;;3.47;1.60;;;;;;;;;;5066070;28;20239;-54
2022/12/29 11:42:55;;;;;;;1.20;1.10;;;;;;;;;;5073522;28;20285;-55
2022/12/29 11:45:23;;;;;;;1.30;1.20;;;;;;;;;;5066957;28;20529;-55
2022/12/29 11:47:51;;;;;;;2.03;1.20;;;;;;;;;;5077094;28;20246;-55
2022/12/29 11:50:19;;;;;;;1.33;1.10;;;;;;;;;;5076492;28;20238;-55
2022/12/29 11:52:46;;;;;;;1.30;1.20;;;;;;;;;;5075327;28;20238;-55
2022/12/29 11:55:21;;;;;;;1.13;1.03;;;;;;;;;;5065995;28;20238;-55
2022/12/29 11:57:48;;;;;;;0.90;0.90;;;;;;;;;;5075059;28;20280;-55
2022/12/29 12:00:16;;;;;;;1.23;1.03;;;;;;;;;;5067320;28;20768;-55
2022/12/29 12:02:45;;;;;;;1.77;1.10;;;;;;;;;;5076304;28;20291;-56
2022/12/29 12:05:18;;;;;;;1.53;0.83;;;;;;;;;;5071723;28;20250;-59
2022/12/29 12:07:46;;;;;;;1.03;0.90;;;;;;;;;;5064507;28;20694;-59
2022/12/29 12:10:22;;;;;;;1.10;1.00;;;;;;;;;;5066238;28;20855;-56
2022/12/29 12:12:52;;;;;;;0.77;0.77;;;;;;;;;;5064664;28;20239;-58
2022/12/29 12:15:21;;;;;;;0.53;0.53;;;;;;;;;;5073179;28;20234;-57
2022/12/29 12:17:51;;;;;;;0.83;0.83;;;;;;;;;;5084383;28;20231;-58
2022/12/29 12:20:21;;;;;;;1.63;0.80;;;;;;;;;;5085951;28;20668;-57
2022/12/29 12:22:52;;;;;;;1.07;0.80;;;;;;;;;;5066740;28;20262;-57
2022/12/29 12:25:21;;;;;;;1.13;1.00;;;;;;;;;;5066954;28;20231;-58
2022/12/29 12:27:50;;;;;;;0.80;0.67;;;;;;;;;;5076940;28;20322;-57
2022/12/29 12:30:18;;;;;;;1.30;1.07;;;;;;;;;;5086484;28;20262;-57
2022/12/29 12:32:47;;;;;;;0.60;0.60;;;;;;;;;;5086806;28;20238;-58
2022/12/29 12:35:14;;;;;;;2.03;1.03;;;;;;;;;;5086727;28;20234;-55
2022/12/29 12:37:47;;;;;;;1.00;0.70;;;;;;;;;;5071550;28;20252;-60
2022/12/29 12:40:26;;;;;;;0.93;0.80;;;;;;;;;;5070277;28;20288;-55
2022/12/29 12:42:58;;;;;;;0.53;0.50;;;;;;;;;;5078346;28;20223;-55
2022/12/29 12:45:33;;;;;;;2.93;0.63;;;;;;;;;;5078011;28;20242;-56
2022/12/29 12:48:05;;;;;;;1.10;0.90;;;;;;;;;;5089180;28;20742;-56
2022/12/29 12:50:39;;;;;;;0.70;0.70;;;;;;;;;;5082899;28;20231;-55
2022/12/29 12:53:22;;;;;;;0.73;0.70;;;;;;;;;;5078632;28;20241;-54
2022/12/29 12:55:55;;;;;;;0.50;0.50;;;;;;;;;;5087611;28;20242;-55
2022/12/29 12:58:29;;;;;;;0.90;0.90;;;;;;;;;;5077844;28;20235;-55
2022/12/29 13:01:01;;;;;;;2.40;0.70;;;;;;;;;;5079598;28;20227;-54
2022/12/29 13:03:45;;;;;;;0.70;0.60;;;;;;;;;;5070455;28;20782;-54
2022/12/29 13:06:19;;;;;;;1.10;0.83;;;;;;;;;;5068997;28;20226;-55
2022/12/29 13:09:09;;;;;;;0.63;0.53;;;;;;;;;;5070690;28;20235;-55
2022/12/29 13:11:45;;;;;;;0.70;0.70;;;;;;;;;;5055291;28;20231;-56
2022/12/29 13:14:17;;;;;;;0.70;0.70;;;;;;;;;;5070749;28;20246;-56
2022/12/29 13:16:49;;;;;;;0.40;0.40;;;;;;;;;;5091154;28;20227;-54
2022/12/29 13:19:21;;;;;;;1.63;1.30;;;;;;;;;;5093077;28;20241;-56
2022/12/29 13:21:54;;;;;;;1.63;1.10;;;;;;;;;;5080637;28;20243;-54
2022/12/29 13:24:23;;;;;;;1.13;0.97;;;;;;;;;;5073861;28;20223;-55
2022/12/29 13:26:53;;;;;;;0.53;0.53;;;;;;;;;;5070222;28;20571;-57
2022/12/29 13:29:21;;;;;;;1.10;0.87;;;;;;;;;;5068164;28;20227;-54
2022/12/29 13:31:51;;;;;;;1.17;0.87;;;;;;;;;;5069652;28;20234;-54
2022/12/29 13:34:25;;;;;;;1.50;1.17;;;;;;;;;;5068063;28;20239;-60
2022/12/29 13:36:53;;;;;;;1.10;1.00;;;;;;;;;;5082143;28;20262;-57
2022/12/29 13:39:22;;;;;;;1.20;0.93;;;;;;;;;;5083624;28;20246;-54
2022/12/29 13:41:51;;;;;;;0.83;0.83;;;;;;;;;;5089193;28;20305;-55
2022/12/29 13:44:23;;;;;;;2.97;0.90;;;;;;;;;;5075450;28;20239;-55
2022/12/29 13:46:50;;;;;;;2.37;1.10;;;;;;;;;;5067262;28;20231;-64
2022/12/29 13:49:18;;;;;;;2.20;0.80;;;;;;;;;;5070008;28;20227;-56
2022/12/29 13:51:48;;;;;;;2.17;1.10;;;;;;;;;;5072491;28;20238;-55
2022/12/29 13:54:19;;;;;;;1.57;1.37;;;;;;;;;;5085339;28;20775;-57
2022/12/29 13:56:50;;;;;;;1.13;1.03;;;;;;;;;;5083409;28;20234;-62
2022/12/29 13:59:21;;;;;;;1.27;1.10;;;;;;;;;;5093280;28;20330;-57
2022/12/29 14:01:51;;;;;;;0.80;0.70;;;;;;;;;;5093427;28;20238;-55
2022/12/29 14:04:22;;;;;;;0.90;0.90;;;;;;;;;;5093972;28;20231;-56
2022/12/29 14:06:57;;;;;;;1.57;1.33;;;;;;;;;;5092673;28;20234;-59
2022/12/29 14:09:39;;;;;;;1.30;1.20;;;;;;;;;;5092992;28;20258;-58
2022/12/29 14:12:19;;;;;;;1.10;0.80;;;;;;;;;;5093282;28;20609;-66
2022/12/29 14:14:48;;;;;;;2.93;1.27;;;;;;;;;;5086634;28;20242;-55
2022/12/29 14:17:19;;;;;;;2.63;1.23;;;;;;;;;;5068814;28;20300;-55
2022/12/29 14:19:46;;;;;;;2.60;1.37;;;;;;;;;;5072291;28;20235;-55
2022/12/29 14:22:13;;;;;;;2.93;1.10;;;;;;;;;;5071924;28;20292;-56
2022/12/29 14:24:42;;;;;;;1.20;1.03;;;;;;;;;;5073258;28;20305;-54
2022/12/29 14:27:27;;;;;;;1.30;1.20;;;;;;;;;;5069337;28;20227;-56
2022/12/29 14:29:55;;;;;;;1.20;1.10;;;;;;;;;;5072014;28;20254;-55
2022/12/29 14:32:37;;;;;;;2.70;1.30;;;;;;;;;;5072369;28;20880;-55
2022/12/29 14:35:19;;;;;;;1.40;1.20;;;;;;;;;;5092206;28;20256;-55
2022/12/29 14:37:45;;;;;;;2.27;1.43;;;;;;;;;;5082573;28;20227;-55
2022/12/29 14:40:16;;;;;;;1.20;1.03;;;;;;;;;;5078887;28;20307;-55
2022/12/29 14:42:43;;;;;;;2.80;1.30;;;;;;;;;;5090849;28;20230;-58
2022/12/29 14:45:26;;;;;;;2.73;1.60;;;;;;;;;;5071496;28;20223;-55
2022/12/29 14:47:53;;;;;;;1.80;1.57;;;;;;;;;;5069117;28;20309;-55
2022/12/29 14:50:23;;;;;;;1.30;1.20;;;;;;;;;;5078457;28;20230;-55
2022/12/29 14:52:52;;;;;;;1.53;1.10;;;;;;;;;;5080475;28;20257;-54
2022/12/29 14:55:38;;;;;;;2.33;1.30;;;;;;;;;;5071236;28;20280;-55
2022/12/29 14:58:05;;;;;;;0.90;0.90;;;;;;;;;;5082433;28;20227;-55
2022/12/29 15:00:34;;;;;;;1.27;1.17;;;;;;;;;;5087722;28;20254;-54
2022/12/29 15:03:04;;;;;;;3.07;1.30;;;;;;;;;;5088418;28;20242;-55
2022/12/29 15:05:32;;;;;;;1.20;1.10;;;;;;;;;;5088123;28;20731;-59
2022/12/29 15:07:59;;;;;;;2.40;1.87;;;;;;;;;;5087241;28;20238;-54
2022/12/29 15:10:27;;;;;;;1.30;1.00;;;;;;;;;;5087262;28;20261;-53
2022/12/29 15:12:56;;;;;;;1.00;0.87;;;;;;;;;;5087097;28;20314;-55
2022/12/29 15:15:24;;;;;;;1.53;0.70;;;;;;;;;;5079217;28;20250;-57
2022/12/29 15:17:52;;;;;;;1.03;0.80;;;;;;;;;;5065051;28;20268;-57
2022/12/29 15:20:24;;;;;;;3.47;1.23;;;;;;;;;;5066135;28;20753;-58
2022/12/29 15:22:53;;;;;;;1.23;1.00;;;;;;;;;;5067179;28;20235;-58
2022/12/29 15:25:20;;;;;;;0.60;0.60;;;;;;;;;;5068575;28;20611;-56
2022/12/29 15:27:49;;;;;;;1.10;0.80;;;;;;;;;;5066944;28;20246;-56